Time;durP1;ratioP1;P1;durP2;ratioP2;P2;SDS_P1;SDS_P2;PMS_P1;PMS_P2;Temp;Humidity;BMP_temperature;BMP_pressure;BME280_temperature;BME280_humidity;BME280_pressure;Samples;Min_cycle;Max_cycle;Signal;HPM_P1;HPM_P2
2021/04/14 00:01:23;;;;;;;6.85;3.78;;;;;;;2.43;80.82;102650.53;5027408;28;20404;-69
2021/04/14 00:03:48;;;;;;;5.38;2.92;;;;;;;2.43;80.76;102647.88;5031785;28;20067;-69
2021/04/14 00:06:15;;;;;;;7.40;3.10;;;;;;;2.45;80.70;102650.56;5038552;28;20090;-68
2021/04/14 00:08:40;;;;;;;10.90;3.10;;;;;;;2.44;80.22;102652.31;5037911;28;20025;-68
2021/04/14 00:11:07;;;;;;;12.93;3.20;;;;;;;2.40;79.87;102655.88;5029545;28;20034;-69
2021/04/14 00:13:41;;;;;;;12.15;3.47;;;;;;;2.39;79.84;102651.44;5027366;28;20505;-69
2021/04/14 00:16:09;;;;;;;7.55;3.13;;;;;;;2.39;79.93;102651.44;5028509;28;20107;-68
2021/04/14 00:18:34;;;;;;;5.80;3.10;;;;;;;2.37;80.07;102652.31;5027306;28;20037;-69
2021/04/14 00:21:00;;;;;;;5.65;2.75;;;;;;;2.34;80.25;102647.91;5031182;28;20116;-69
2021/04/14 00:23:25;;;;;;;5.93;3.03;;;;;;;2.30;80.30;102639.94;5040327;28;20395;-68
2021/04/14 00:25:52;;;;;;;5.68;2.92;;;;;;;2.29;80.33;102646.09;5031155;28;20478;-68
2021/04/14 00:28:20;;;;;;;9.48;3.55;;;;;;;2.26;80.29;102643.47;5029800;28;20086;-69
2021/04/14 00:30:47;;;;;;;6.55;3.20;;;;;;;2.24;80.29;102643.47;5027845;28;20044;-69
2021/04/14 00:33:13;;;;;;;10.40;3.55;;;;;;;2.21;79.94;102643.47;5030411;28;20036;-69
2021/04/14 00:35:38;;;;;;;8.00;3.30;;;;;;;2.18;79.75;102640.81;5029310;28;20037;-69
2021/04/14 00:38:06;;;;;;;7.55;3.38;;;;;;;2.17;79.73;102644.34;5028643;28;20044;-68
2021/04/14 00:40:39;;;;;;;7.93;3.13;;;;;;;2.12;80.10;102635.50;5029318;28;20036;-69
2021/04/14 00:43:18;;;;;;;;;;;;;;;2.06;80.49;102640.81;5032798;28;20041;-69
2021/04/14 00:45:44;;;;;;;7.32;3.63;;;;;;;2.01;80.68;102637.25;5027361;28;19960;-69
2021/04/14 00:48:10;;;;;;;11.15;3.40;;;;;;;1.97;80.76;102639.03;5032343;28;20448;-69
2021/04/14 00:50:38;;;;;;;6.55;3.55;;;;;;;1.94;80.82;102640.78;5028812;28;20401;-69
2021/04/14 00:53:04;;;;;;;8.02;3.83;;;;;;;1.90;80.58;102639.91;5029659;28;20043;-69
2021/04/14 00:55:32;;;;;;;8.52;3.30;;;;;;;1.90;80.46;102637.25;5026677;28;20493;-69
2021/04/14 00:57:57;;;;;;;7.35;3.10;;;;;;;1.89;80.41;102634.59;5028962;28;20034;-69
2021/04/14 01:00:26;;;;;;;8.20;3.97;;;;;;;1.84;80.42;102633.72;5028040;28;20029;-69
2021/04/14 01:02:51;;;;;;;10.98;3.65;;;;;;;1.82;80.51;102630.16;5030168;28;20501;-69
2021/04/14 01:05:19;;;;;;;9.95;3.92;;;;;;;1.82;80.72;102632.81;5027068;28;20045;-69
2021/04/14 01:07:44;;;;;;;11.55;4.05;;;;;;;1.81;80.78;102631.03;5030463;28;20034;-69
2021/04/14 01:10:11;;;;;;;8.77;3.65;;;;;;;1.75;81.19;102628.38;5027049;28;20025;-69
2021/04/14 01:12:36;;;;;;;10.73;3.92;;;;;;;1.73;81.38;102624.88;5028492;28;20029;-69
2021/04/14 01:15:05;;;;;;;8.05;3.92;;;;;;;1.70;81.87;102627.50;5027003;28;20049;-69
2021/04/14 01:17:30;;;;;;;9.75;4.28;;;;;;;1.68;82.08;102627.47;5030318;28;20029;-69
2021/04/14 01:19:56;;;;;;;8.27;4.55;;;;;;;1.64;82.31;102620.41;5031693;28;20490;-69
2021/04/14 01:22:21;;;;;;;12.52;4.45;;;;;;;1.63;82.62;102621.28;5029612;28;20108;-69
2021/04/14 01:24:46;;;;;;;16.95;5.03;;;;;;;1.61;82.90;102621.28;5027997;28;20041;-69
2021/04/14 01:27:12;;;;;;;8.82;4.75;;;;;;;1.60;82.94;102623.94;5028777;28;20030;-69
2021/04/14 01:29:37;;;;;;;11.27;4.53;;;;;;;1.59;83.01;102620.41;5031836;28;20036;-69
2021/04/14 01:32:03;;;;;;;9.93;4.10;;;;;;;1.59;83.24;102622.19;5029384;28;20494;-69
2021/04/14 01:34:28;;;;;;;9.23;4.55;;;;;;;1.53;83.74;102622.16;5029901;28;20348;-69
2021/04/14 01:36:54;;;;;;;9.98;4.65;;;;;;;1.46;84.23;102626.53;5028159;28;20045;-69
2021/04/14 01:39:19;;;;;;;14.32;4.82;;;;;;;1.43;84.71;102621.22;5027537;28;20483;-69
2021/04/14 01:41:45;;;;;;;16.35;5.63;;;;;;;1.43;84.90;102634.44;5027501;28;20041;-70
2021/04/14 01:44:11;;;;;;;14.18;5.40;;;;;;;1.36;85.10;102619.44;5042830;23;20011;-77
2021/04/14 01:46:38;;;;;;;10.13;4.85;;;;;;;1.29;85.50;102628.25;5085686;28;20080;-77
2021/04/14 01:49:05;;;;;;;10.05;4.90;;;;;;;1.24;85.75;102622.03;5086582;28;20032;-78
2021/04/14 01:51:31;;;;;;;17.83;5.18;;;;;;;1.20;86.21;102626.44;5078873;28;20116;-78
2021/04/14 01:53:57;;;;;;;9.00;4.82;;;;;;;1.19;86.18;102627.31;5079876;28;20020;-78
2021/04/14 01:56:25;;;;;;;9.55;5.10;;;;;;;1.15;86.68;102619.34;5085992;28;20393;-78
2021/04/14 01:58:51;;;;;;;12.32;4.75;;;;;;;1.12;87.05;102620.22;5082794;28;20441;-78
2021/04/14 02:01:18;;;;;;;11.45;5.13;;;;;;;1.11;87.28;102622.88;5081854;28;20054;-77
2021/04/14 02:03:43;;;;;;;13.85;5.30;;;;;;;1.11;87.24;102617.59;5100466;28;20032;-77
2021/04/14 02:06:12;;;;;;;14.15;5.30;;;;;;;1.13;87.44;102621.97;5084001;28;20032;-77
2021/04/14 02:08:38;;;;;;;11.82;5.38;;;;;;;1.12;87.40;102619.31;5074211;28;20651;-76
2021/04/14 02:11:06;;;;;;;10.82;4.72;;;;;;;1.11;87.57;102614.94;5083144;28;20516;-77
2021/04/14 02:13:35;;;;;;;15.57;5.60;;;;;;;1.08;87.39;102620.19;5094493;28;20470;-78
2021/04/14 02:16:01;;;;;;;16.48;6.05;;;;;;;1.05;87.46;102612.25;5081094;28;20044;-77
2021/04/14 02:18:27;;;;;;;11.52;5.50;;;;;;;1.02;87.57;102612.22;5078420;28;20340;-77
2021/04/14 02:20:52;;;;;;;15.93;5.90;;;;;;;1.01;87.75;102610.47;5083124;28;20719;-77
2021/04/14 02:23:22;;;;;;;10.63;5.05;;;;;;;1.00;87.82;102611.31;5084494;28;20035;-76
2021/04/14 02:25:48;;;;;;;17.00;5.93;;;;;;;0.98;87.87;102610.47;5079287;28;20043;-77
2021/04/14 02:28:14;;;;;;;10.85;5.93;;;;;;;0.97;87.86;102608.69;5082588;28;20385;-78
2021/04/14 02:30:40;;;;;;;12.07;5.40;;;;;;;0.92;87.97;102608.66;5080262;28;20068;-78
2021/04/14 02:33:06;;;;;;;15.20;5.78;;;;;;;0.92;88.29;102605.13;5088029;28;20030;-78
2021/04/14 02:35:33;;;;;;;11.43;5.03;;;;;;;0.89;88.22;102595.41;5087658;28;20098;-78
2021/04/14 02:37:58;;;;;;;8.27;4.60;;;;;;;0.87;88.67;102606.84;5066945;28;20541;-77
2021/04/14 02:40:24;;;;;;;12.07;5.50;;;;;;;0.84;88.78;102598.91;5071729;28;20115;-77
2021/04/14 02:42:50;;;;;;;9.35;4.97;;;;;;;0.82;88.55;102594.50;5084769;28;20032;-78
2021/04/14 02:45:21;;;;;;;18.90;4.93;;;;;;;0.77;88.88;102592.72;5089340;28;20162;-77
2021/04/14 02:47:47;;;;;;;17.40;5.43;;;;;;;0.72;89.34;102597.97;5085526;28;20035;-77
2021/04/14 02:50:13;;;;;;;12.05;4.38;;;;;;;0.69;89.65;102586.47;5088385;28;20070;-77
2021/04/14 02:52:38;;;;;;;12.85;5.70;;;;;;;0.68;90.01;102590.03;5088108;28;20036;-76
2021/04/14 02:55:06;;;;;;;14.68;5.25;;;;;;;0.67;90.20;102589.13;5088485;28;20031;-77
2021/04/14 02:57:31;;;;;;;13.15;4.90;;;;;;;0.65;90.08;102582.94;5084289;28;20036;-78
2021/04/14 02:59:57;;;;;;;17.13;6.88;;;;;;;0.63;90.25;102586.44;5088158;28;20039;-78
2021/04/14 03:02:23;;;;;;;10.07;5.25;;;;;;;0.59;90.96;102580.28;5067666;28;20036;-77
2021/04/14 03:04:48;;;;;;;15.23;6.90;;;;;;;0.56;91.08;102584.63;5086375;28;20084;-77
2021/04/14 03:07:14;;;;;;;12.60;5.03;;;;;;;0.54;91.31;102574.06;5083313;28;20465;-77
2021/04/14 03:09:40;;;;;;;13.68;6.13;;;;;;;0.54;91.51;102579.38;5087285;28;20032;-78
2021/04/14 03:12:07;;;;;;;11.18;5.35;;;;;;;0.53;91.45;102585.50;5084936;28;20044;-77
2021/04/14 03:14:32;;;;;;;10.60;5.75;;;;;;;0.52;91.52;102575.81;5086118;28;20039;-77
2021/04/14 03:16:58;;;;;;;15.45;6.20;;;;;;;0.49;91.49;102583.75;5068779;28;20029;-78
2021/04/14 03:19:24;;;;;;;12.65;6.00;;;;;;;0.44;92.01;102585.44;5071756;28;20162;-77
2021/04/14 03:21:49;;;;;;;10.52;4.72;;;;;;;0.40;92.16;102571.34;5087504;28;20482;-78
2021/04/14 03:24:15;;;;;;;15.50;5.45;;;;;;;0.38;92.64;102570.44;5087245;28;20062;-77
2021/04/14 03:26:40;;;;;;;14.40;6.88;;;;;;;0.40;92.68;102573.09;5078390;28;20021;-77
2021/04/14 03:29:05;;;;;;;10.80;6.03;;;;;;;0.41;92.85;102572.22;5085048;28;20050;-77
2021/04/14 03:31:33;;;;;;;12.05;5.60;;;;;;;0.44;92.84;102573.97;5067929;28;20367;-78
2021/04/14 03:33:58;;;;;;;14.23;6.20;;;;;;;0.44;92.72;102564.31;5063392;28;20545;-76
2021/04/14 03:36:24;;;;;;;11.23;5.40;;;;;;;0.44;92.67;102572.22;5083182;28;20059;-78
2021/04/14 03:38:49;;;;;;;11.70;5.15;;;;;;;0.45;92.63;102568.72;5069429;28;20028;-77
2021/04/14 03:41:15;;;;;;;11.18;6.75;;;;;;;0.45;92.68;102565.19;5071891;28;20447;-78
2021/04/14 03:43:41;;;;;;;20.42;6.60;;;;;;;0.44;92.83;102563.41;5087100;28;20109;-76
2021/04/14 03:46:07;;;;;;;17.95;5.32;;;;;;;0.44;92.99;102552.84;5082452;28;20065;-78
2021/04/14 03:48:33;;;;;;;12.15;4.80;;;;;;;0.40;93.10;102559.88;5080104;28;20046;-77
2021/04/14 03:50:58;;;;;;;12.60;5.32;;;;;;;0.36;93.56;102551.06;5079628;28;20032;-76
2021/04/14 03:53:30;;;;;;;12.40;5.72;;;;;;;0.34;93.61;102546.63;5068335;28;20485;-77
2021/04/14 03:56:11;;;;;;;9.65;5.20;;;;;;;0.32;94.21;102545.72;5086451;28;20581;-77
2021/04/14 03:58:39;;;;;;;12.63;5.65;;;;;;;0.32;94.53;102564.22;5088023;28;20038;-77
2021/04/14 04:01:10;;;;;;;11.55;5.18;;;;;;;0.27;94.58;102555.38;5082013;28;20745;-77
2021/04/14 04:03:36;;;;;;;11.38;5.30;;;;;;;0.21;95.13;102555.34;5084120;28;20148;-77
2021/04/14 04:06:02;;;;;;;13.00;5.57;;;;;;;0.20;95.44;102551.81;5069861;28;20123;-77
2021/04/14 04:08:28;;;;;;;8.57;4.78;;;;;;;0.22;95.56;102549.19;5080991;28;20640;-77
2021/04/14 04:10:53;;;;;;;12.60;5.28;;;;;;;0.24;95.54;102550.09;5079979;28;20063;-78
2021/04/14 04:13:19;;;;;;;9.90;5.63;;;;;;;0.21;96.08;102550.06;5080534;28;20042;-78
2021/04/14 04:15:45;;;;;;;13.75;5.82;;;;;;;0.19;96.18;102549.16;5084582;28;20036;-77
2021/04/14 04:18:11;;;;;;;12.75;5.78;;;;;;;0.16;96.52;102546.50;5067023;28;20531;-77
2021/04/14 04:20:38;;;;;;;10.25;5.43;;;;;;;0.14;96.84;102548.25;5085997;28;20488;-78
2021/04/14 04:23:06;;;;;;;15.75;5.90;;;;;;;0.14;97.35;102559.69;5084494;28;20509;-77
2021/04/14 04:25:32;;;;;;;11.32;6.68;;;;;;;0.13;97.33;102555.28;5083739;28;20027;-78
2021/04/14 04:27:58;;;;;;;13.13;6.43;;;;;;;0.12;97.57;102553.53;5069672;28;20047;-76
2021/04/14 04:30:25;;;;;;;11.70;6.03;;;;;;;0.13;98.00;102549.09;5087111;28;20039;-77
2021/04/14 04:32:50;;;;;;;14.68;5.93;;;;;;;0.14;97.85;102557.03;5069959;28;20035;-76
2021/04/14 04:35:16;;;;;;;14.40;6.32;;;;;;;0.28;98.04;102557.16;5070456;28;20032;-78
2021/04/14 04:37:42;;;;;;;14.25;6.50;;;;;;;0.24;98.19;102560.66;5083912;28;20434;-77
2021/04/14 04:40:08;;;;;;;15.95;8.00;;;;;;;0.30;98.22;102550.13;5082892;28;20145;-77
2021/04/14 04:42:34;;;;;;;15.15;7.60;;;;;;;0.41;98.11;102553.72;5083436;28;20406;-77
2021/04/14 04:45:00;;;;;;;14.60;7.15;;;;;;;0.27;98.44;102558.03;5087832;28;20039;-77
2021/04/14 04:47:26;;;;;;;16.77;7.45;;;;;;;0.21;98.91;102555.34;5087447;28;20028;-77
2021/04/14 04:49:52;;;;;;;15.45;6.78;;;;;;;0.21;99.31;102558.88;5084229;28;20040;-77
2021/04/14 04:52:18;;;;;;;14.05;6.65;;;;;;;0.23;99.83;102556.25;5070030;28;20055;-77
2021/04/14 04:54:43;;;;;;;16.55;7.25;;;;;;;0.25;99.84;102562.41;5079721;28;20052;-78
2021/04/14 04:57:09;;;;;;;15.98;7.38;;;;;;;0.27;99.97;102561.56;5085953;28;20439;-78
2021/04/14 04:59:34;;;;;;;11.82;6.78;;;;;;;0.32;99.77;102564.22;5063047;28;20859;-78
2021/04/14 05:02:01;;;;;;;15.35;6.80;;;;;;;0.34;99.98;102567.75;5085201;28;20548;-78
2021/04/14 05:04:27;;;;;;;11.15;6.72;;;;;;;0.38;99.92;102565.16;5086414;28;20090;-77
2021/04/14 05:06:53;;;;;;;11.68;5.55;;;;;;;0.43;99.92;102561.66;5078384;28;20035;-77
2021/04/14 05:09:19;;;;;;;15.15;5.97;;;;;;;0.46;99.72;102567.84;5081528;28;20020;-77
2021/04/14 05:11:47;;;;;;;10.93;5.70;;;;;;;0.48;99.52;102576.69;5082049;28;20522;-77
2021/04/14 05:14:12;;;;;;;17.35;6.40;;;;;;;0.50;99.62;102582.84;5085678;28;20188;-77
2021/04/14 05:16:38;;;;;;;14.82;5.78;;;;;;;0.55;99.60;102582.88;5085895;28;20060;-77
2021/04/14 05:19:03;;;;;;;9.13;5.60;;;;;;;0.59;100.00;102579.38;5102006;28;20038;-77
2021/04/14 05:21:32;;;;;;;17.80;7.22;;;;;;;0.53;100.00;102582.88;5081035;28;20132;-77
2021/04/14 05:23:58;;;;;;;18.33;7.00;;;;;;;0.56;100.00;102580.22;5086411;28;20533;-77
2021/04/14 05:26:23;;;;;;;18.33;7.60;;;;;;;0.55;100.00;102575.84;5061799;28;20032;-77
2021/04/14 05:28:49;;;;;;;17.85;6.93;;;;;;;0.54;100.00;102579.38;5084234;28;20028;-77
2021/04/14 05:31:14;;;;;;;12.45;6.72;;;;;;;0.60;100.00;102581.16;5058353;28;20103;-77
2021/04/14 05:33:40;;;;;;;13.35;6.75;;;;;;;0.68;100.00;102585.59;5083558;28;20059;-78
2021/04/14 05:36:06;;;;;;;14.30;6.78;;;;;;;0.78;100.00;102595.38;5069331;28;20123;-79
2021/04/14 05:38:31;;;;;;;16.15;7.20;;;;;;;0.79;100.00;102597.13;5082366;28;20497;-77
2021/04/14 05:40:58;;;;;;;15.15;6.80;;;;;;;0.80;100.00;102590.94;5086762;28;20039;-77
2021/04/14 05:43:39;;;;;;;15.25;7.20;;;;;;;0.85;100.00;102582.19;5077626;28;20036;-77
2021/04/14 05:46:10;;;;;;;20.98;8.77;;;;;;;0.91;100.00;102583.09;5078990;28;20039;-77
2021/04/14 05:48:37;;;;;;;21.30;9.63;;;;;;;1.00;100.00;102582.25;5079309;28;20446;-77
2021/04/14 05:51:05;;;;;;;14.88;7.93;;;;;;;1.12;100.00;102585.81;5086638;28;20040;-77
2021/04/14 05:53:35;;;;;;;19.58;8.45;;;;;;;1.12;100.00;102587.59;5082579;28;20053;-77
2021/04/14 05:56:02;;;;;;;20.80;8.43;;;;;;;1.17;100.00;102591.16;5080766;28;20482;-77
2021/04/14 05:58:28;;;;;;;24.75;8.73;;;;;;;1.42;100.00;102590.34;5069199;28;20032;-77
2021/04/14 06:00:55;;;;;;;19.75;8.07;;;;;;;1.69;100.00;102601.88;5069142;28;20043;-77
2021/04/14 06:03:22;;;;;;;19.98;8.50;;;;;;;1.70;100.00;102619.53;5080177;28;20077;-78
2021/04/14 06:05:51;;;;;;;23.35;9.15;;;;;;;1.81;100.00;102601.91;5069098;28;20126;-77
2021/04/14 06:08:17;;;;;;;17.15;8.15;;;;;;;1.99;99.81;102612.53;5072121;28;20062;-78
2021/04/14 06:10:42;;;;;;;18.65;7.85;;;;;;;2.11;98.49;102622.25;5079753;28;20032;-77
2021/04/14 06:13:08;;;;;;;16.17;7.15;;;;;;;2.23;97.64;102614.31;5078530;28;20710;-77
2021/04/14 06:15:34;;;;;;;20.60;7.50;;;;;;;2.32;97.96;102623.16;5085153;28;20534;-77
2021/04/14 06:18:01;;;;;;;21.55;8.73;;;;;;;2.43;98.24;102628.44;5068351;28;20046;-77
2021/04/14 06:20:29;;;;;;;16.60;7.53;;;;;;;2.52;98.83;102627.56;5084026;28;20093;-77
2021/04/14 06:22:57;;;;;;;16.33;8.52;;;;;;;2.61;99.11;102623.13;5076438;28;20079;-77
2021/04/14 06:25:24;;;;;;;24.17;8.98;;;;;;;2.75;98.48;102625.78;5085240;28;20036;-79
2021/04/14 06:30:24;;;;;;;20.67;8.00;;;;;;;2.96;95.72;102623.09;5084139;28;20032;-77
2021/04/14 06:32:50;;;;;;;19.77;7.72;;;;;;;3.09;94.49;102624.78;5078524;28;20096;-77
2021/04/14 06:35:16;;;;;;;19.77;8.45;;;;;;;3.22;92.72;102631.84;5085889;28;20465;-78
2021/04/14 06:37:42;;;;;;;15.82;7.53;;;;;;;3.37;90.91;102630.00;5082485;28;20123;-77
2021/04/14 06:43:13;;;;;;;14.75;7.70;;;;;;;3.66;87.73;102638.72;5082775;28;20551;-76
2021/04/14 06:45:53;;;;;;;15.05;7.55;;;;;;;3.75;86.11;102638.69;5079479;28;20040;-77
2021/04/14 06:48:46;;;;;;;17.42;7.18;;;;;;;3.75;86.26;102646.66;5067200;28;20035;-77
2021/04/14 06:51:39;;;;;;;20.08;7.40;;;;;;;3.86;86.26;102652.78;5085760;28;20067;-77
2021/04/14 06:54:16;;;;;;;19.58;7.40;;;;;;;3.84;86.12;102645.69;5083223;28;20028;-77
2021/04/14 06:56:42;;;;;;;16.83;7.78;;;;;;;3.89;86.68;102652.75;5078569;28;20086;-77
2021/04/14 06:59:15;;;;;;;19.42;8.65;;;;;;;3.97;86.19;102650.94;5083393;28;20032;-76
2021/04/14 07:02:06;;;;;;;17.90;9.40;;;;;;;4.14;86.23;102652.59;5064031;28;20422;-77
2021/04/14 07:04:45;;;;;;;16.73;8.02;;;;;;;4.33;86.75;102651.56;5077844;28;20090;-77
2021/04/14 07:07:21;;;;;;;19.58;8.23;;;;;;;4.48;87.32;102665.63;5083263;28;20549;-77
2021/04/14 07:09:49;;;;;;;22.33;9.32;;;;;;;4.77;84.94;102668.03;5084438;28;20490;-77
2021/04/14 07:12:21;;;;;;;18.38;7.88;;;;;;;4.92;82.86;102663.47;5077873;28;20036;-78
2021/04/14 07:14:49;;;;;;;18.10;8.10;;;;;;;5.08;82.11;102667.72;5066711;28;20426;-77
2021/04/14 07:17:23;;;;;;;16.85;8.05;;;;;;;5.25;82.42;102660.44;5075468;28;20054;-78
2021/04/14 07:19:49;;;;;;;15.50;7.18;;;;;;;5.30;80.52;102674.59;5084027;28;20089;-77
2021/04/14 07:22:27;;;;;;;18.40;9.05;;;;;;;5.27;81.11;102664.84;5074763;28;20027;-77
2021/04/14 07:24:58;;;;;;;15.50;8.52;;;;;;;5.23;81.28;102668.47;5079297;28;20051;-78
2021/04/14 07:27:27;;;;;;;16.95;8.93;;;;;;;5.47;81.28;102667.28;5086164;28;20644;-76
2021/04/14 07:30:06;;;;;;;17.25;9.45;;;;;;;5.64;81.05;102665.28;5085752;28;20040;-78
2021/04/14 07:32:53;;;;;;;16.27;9.43;;;;;;;5.75;80.94;102658.91;5085708;28;20036;-79
2021/04/14 07:35:28;;;;;;;18.00;9.82;;;;;;;5.78;79.65;102664.22;5082399;28;20470;-77
2021/04/14 07:37:56;;;;;;;20.23;10.77;;;;;;;5.83;80.02;102667.72;5077698;28;20024;-78
2021/04/14 07:40:46;;;;;;;21.35;10.65;;;;;;;5.97;79.52;102668.44;5083590;28;20023;-77
2021/04/14 07:43:25;;;;;;;21.50;10.27;;;;;;;6.28;78.53;102668.88;5078422;28;20075;-77
2021/04/14 07:45:51;;;;;;;24.90;10.00;;;;;;;6.62;78.14;102669.19;5084228;28;20047;-77
2021/04/14 07:48:23;;;;;;;27.63;10.88;;;;;;;7.02;75.19;102672.94;5069110;28;20055;-77
2021/04/14 07:50:54;;;;;;;22.73;9.95;;;;;;;7.32;73.27;102679.47;5067186;28;20024;-78
2021/04/14 07:53:22;;;;;;;24.08;10.25;;;;;;;7.70;74.11;102674.25;5071638;28;20031;-77
2021/04/14 07:55:59;;;;;;;17.92;9.65;;;;;;;7.73;72.77;102670.59;5087769;28;20035;-77
2021/04/14 07:58:25;;;;;;;22.67;10.13;;;;;;;7.78;72.80;102668.69;5063810;28;20032;-77
2021/04/14 08:00:51;;;;;;;19.83;9.85;;;;;;;7.29;72.98;102667.03;5078244;28;20467;-75
2021/04/14 08:03:29;;;;;;;20.92;9.43;;;;;;;7.08;76.21;102654.13;5072205;28;20024;-75
2021/04/14 08:06:12;;;;;;;24.65;9.77;;;;;;;6.82;78.88;102651.94;5068880;28;20035;-75
2021/04/14 08:08:40;;;;;;;18.98;10.60;;;;;;;6.60;75.55;102652.34;5081205;28;20104;-75
2021/04/14 08:11:10;;;;;;;38.13;9.82;;;;;;;6.48;75.67;102646.28;5086060;28;20032;-76
2021/04/14 08:13:41;;;;;;;18.00;9.15;;;;;;;6.35;74.38;102651.88;5081341;28;20762;-76
2021/04/14 08:16:36;;;;;;;22.10;9.63;;;;;;;6.43;73.44;102649.94;5083110;28;20296;-75
2021/04/14 08:19:11;;;;;;;19.48;8.88;;;;;;;6.63;74.13;102660.28;5098027;28;20059;-75
2021/04/14 08:21:40;;;;;;;21.00;8.82;;;;;;;6.97;74.88;102661.47;5082082;28;20040;-75
2021/04/14 08:24:26;;;;;;;16.00;8.63;;;;;;;7.16;74.91;102660.19;5082915;28;20040;-75
2021/04/14 08:26:54;;;;;;;22.67;9.30;;;;;;;7.20;76.40;102664.56;5084275;28;20456;-75
2021/04/14 08:29:19;;;;;;;17.70;9.20;;;;;;;7.38;76.10;102668.66;5084292;28;20039;-75
2021/04/14 08:31:45;;;;;;;20.55;9.27;;;;;;;7.31;76.78;102667.91;5072888;28;20028;-75
2021/04/14 08:34:34;;;;;;;19.83;10.23;;;;;;;7.33;77.40;102670.56;5085720;28;20058;-75
2021/04/14 08:37:18;;;;;;;20.13;9.23;;;;;;;7.44;76.28;102670.34;5079314;28;20035;-75
2021/04/14 08:39:53;;;;;;;23.65;10.30;;;;;;;7.39;75.87;102664.22;5081367;28;20043;-75
2021/04/14 08:42:22;;;;;;;29.83;14.15;;;;;;;7.31;77.67;102667.03;5078230;28;20039;-75
2021/04/14 08:44:51;;;;;;;27.10;11.85;;;;;;;7.54;76.73;102664.75;5079807;28;20074;-75
2021/04/14 08:47:28;;;;;;;22.92;10.15;;;;;;;7.71;76.55;102662.59;5075812;28;20043;-75
2021/04/14 08:50:04;;;;;;;28.92;10.90;;;;;;;7.93;76.32;102662.16;5074103;28;20083;-75
2021/04/14 08:52:31;;;;;;;24.50;10.48;;;;;;;8.04;74.65;102655.63;5067802;28;20154;-75
2021/04/14 08:54:59;;;;;;;19.85;10.65;;;;;;;8.30;74.16;102651.47;5068190;28;20031;-76
2021/04/14 08:57:25;;;;;;;21.15;10.23;;;;;;;8.73;72.49;102662.91;5081594;28;20070;-75
2021/04/14 08:59:50;;;;;;;19.23;9.88;;;;;;;9.07;68.05;102656.66;5075687;28;20059;-75
2021/04/14 09:02:19;;;;;;;19.40;9.95;;;;;;;9.61;65.92;102652.41;5082609;28;20118;-75
2021/04/14 09:04:47;;;;;;;18.38;9.52;;;;;;;10.38;64.17;102658.97;5060830;28;20202;-76
2021/04/14 09:07:34;;;;;;;19.30;9.48;;;;;;;10.75;59.74;102669.38;5081247;28;20513;-75
2021/04/14 09:10:07;;;;;;;21.13;9.00;;;;;;;10.94;57.90;102665.13;5076446;28;20544;-75
2021/04/14 09:12:48;;;;;;;19.15;9.15;;;;;;;10.45;58.36;102666.78;5060598;28;20253;-76
2021/04/14 09:15:15;;;;;;;20.58;8.98;;;;;;;10.43;56.82;102670.47;5081560;28;20136;-75
2021/04/14 09:17:42;;;;;;;18.80;9.32;;;;;;;11.01;55.27;102663.97;5077987;28;20157;-75
2021/04/14 09:20:20;;;;;;;18.58;9.23;;;;;;;10.67;55.06;102655.34;5082830;28;20038;-76
2021/04/14 09:22:57;;;;;;;20.17;9.48;;;;;;;10.20;54.40;102663.13;5081026;28;20393;-76
2021/04/14 09:25:31;;;;;;;17.95;9.20;;;;;;;10.67;54.96;102655.34;5068991;28;20541;-76
2021/04/14 09:28:02;;;;;;;18.70;8.60;;;;;;;11.24;50.81;102661.34;5079262;28;20447;-74
2021/04/14 09:30:33;;;;;;;15.10;8.32;;;;;;;11.17;52.66;102662.50;5077840;28;20059;-75
2021/04/14 09:33:04;;;;;;;18.40;8.80;;;;;;;11.09;51.91;102652.97;5082452;28;20086;-75
2021/04/14 09:35:30;;;;;;;20.50;8.60;;;;;;;11.44;48.46;102659.75;5077938;28;20026;-74
2021/04/14 09:40:46;;;;;;;16.75;8.95;;;;;;;10.75;51.89;102645.19;5079112;28;20100;-76
2021/04/14 09:43:16;;;;;;;18.02;8.63;;;;;;;10.57;52.54;102651.19;5083536;28;20047;-75
2021/04/14 09:45:56;;;;;;;17.05;9.25;;;;;;;10.81;51.53;102648.56;5080129;28;20089;-75
2021/04/14 09:48:22;;;;;;;19.00;8.68;;;;;;;10.98;48.50;102645.31;5074837;28;20434;-75
2021/04/14 09:50:50;;;;;;;19.55;9.65;;;;;;;11.23;52.90;102639.91;5082576;28;20043;-75
2021/04/14 09:53:15;;;;;;;14.40;8.70;;;;;;;11.03;51.22;102643.31;5079489;28;20386;-75
2021/04/14 09:55:54;;;;;;;18.40;8.52;;;;;;;11.02;51.62;102646.94;5079089;28;20043;-75
2021/04/14 09:58:41;;;;;;;17.05;8.82;;;;;;;11.36;48.94;102650.13;5080717;28;20032;-76
2021/04/14 10:01:13;;;;;;;21.90;9.10;;;;;;;11.59;46.95;102649.31;5076970;28;20032;-74
2021/04/14 10:03:43;;;;;;;17.50;8.32;;;;;;;11.09;47.59;102637.72;5066236;28;20446;-76
2021/04/14 10:06:15;;;;;;;15.50;8.40;;;;;;;11.28;50.02;102633.44;5080869;28;20652;-75
2021/04/14 10:08:43;;;;;;;19.17;8.20;;;;;;;11.15;47.81;102642.00;5083464;28;20161;-75
2021/04/14 10:11:10;;;;;;;19.35;8.88;;;;;;;11.47;45.12;102639.00;5080115;28;20037;-74
2021/04/14 10:13:37;;;;;;;19.77;10.02;;;;;;;11.72;51.80;102630.88;5079824;28;20456;-75
2021/04/14 10:16:02;;;;;;;15.32;8.68;;;;;;;11.44;46.37;102632.84;5078144;28;20097;-74
2021/04/14 10:18:34;;;;;;;17.42;8.07;;;;;;;11.23;46.91;102632.69;5078504;28;20032;-74
2021/04/14 10:21:13;;;;;;;14.63;7.85;;;;;;;11.29;47.88;102632.47;5079698;28;20531;-75
2021/04/14 10:23:39;;;;;;;16.23;8.25;;;;;;;11.64;46.76;102628.47;5072979;28;20026;-75
2021/04/14 10:26:07;;;;;;;14.68;8.48;;;;;;;11.90;47.90;102626.63;5078954;28;20028;-75
2021/04/14 10:28:33;;;;;;;16.63;8.52;;;;;;;11.84;45.23;102630.44;5079939;28;20040;-74
2021/04/14 10:31:12;;;;;;;13.65;7.18;;;;;;;11.43;44.48;102620.34;5067219;28;20089;-74
2021/04/14 10:33:40;;;;;;;13.80;7.32;;;;;;;11.55;45.39;102622.56;5080296;28;20024;-74
2021/04/14 10:36:17;;;;;;;14.68;7.13;;;;;;;11.68;45.73;102615.78;5078701;28;20475;-74
2021/04/14 10:38:43;;;;;;;16.00;6.82;;;;;;;11.79;45.53;102613.56;5078367;28;20063;-75
2021/04/14 10:41:29;;;;;;;13.50;7.05;;;;;;;12.00;44.43;102599.28;5068456;28;20769;-75
2021/04/14 10:43:54;;;;;;;14.70;6.97;;;;;;;12.16;44.86;102600.41;5075215;28;20165;-75
2021/04/14 10:46:28;;;;;;;11.07;5.88;;;;;;;12.21;43.30;102610.13;5063850;28;20131;-74
2021/04/14 10:49:07;;;;;;;14.40;7.05;;;;;;;11.86;41.17;102598.94;5066653;28;20047;-76
2021/04/14 10:51:40;;;;;;;13.93;6.50;;;;;;;11.90;40.64;102597.91;5063943;28;20035;-75
2021/04/14 10:54:09;;;;;;;15.70;6.80;;;;;;;12.01;41.70;102592.09;5067540;28;20028;-75
2021/04/14 10:56:35;;;;;;;14.05;6.40;;;;;;;12.09;40.38;102598.91;5069753;28;20038;-75
2021/04/14 10:59:05;;;;;;;10.13;6.38;;;;;;;12.38;39.54;102597.72;5069099;28;20031;-75
2021/04/14 11:01:43;;;;;;;17.85;7.43;;;;;;;12.46;42.91;102583.91;5083553;28;20036;-74
2021/04/14 11:04:31;;;;;;;11.93;6.45;;;;;;;12.36;39.22;102587.94;5078983;28;20048;-75
2021/04/14 11:07:07;;;;;;;11.65;6.50;;;;;;;12.41;38.55;102580.53;5085106;28;20036;-75
2021/04/14 11:09:39;;;;;;;13.32;6.72;;;;;;;12.68;41.24;102575.78;5066030;28;20116;-75
2021/04/14 11:12:08;;;;;;;13.98;6.38;;;;;;;12.88;38.82;102576.66;5082058;28;20603;-76
2021/04/14 11:14:37;;;;;;;14.98;6.53;;;;;;;12.77;36.82;102578.97;5067004;28;20039;-74
2021/04/14 11:17:05;;;;;;;19.15;7.10;;;;;;;12.83;38.00;102575.13;5083456;28;20401;-75
2021/04/14 11:19:31;;;;;;;13.63;6.90;;;;;;;12.59;41.19;102578.88;5080034;28;20032;-74
2021/04/14 11:22:02;;;;;;;18.40;8.18;;;;;;;12.35;39.40;102581.66;5064768;28;20055;-75
2021/04/14 11:24:28;;;;;;;13.68;7.28;;;;;;;12.00;41.07;102569.66;5078646;28;20024;-75
2021/04/14 11:26:57;;;;;;;15.13;6.95;;;;;;;11.76;40.65;102570.66;5082322;28;20104;-76
2021/04/14 11:29:27;;;;;;;16.83;7.63;;;;;;;11.55;41.40;102580.41;5080397;28;20413;-75
2021/04/14 11:31:54;;;;;;;11.68;6.72;;;;;;;11.29;43.15;102567.09;5082957;28;20032;-74
2021/04/14 11:34:23;;;;;;;12.60;6.45;;;;;;;11.17;43.57;102564.88;5079131;28;20081;-74
2021/04/14 11:37:05;;;;;;;15.48;7.95;;;;;;;11.42;42.33;102575.59;5062152;28;20038;-74
2021/04/14 11:39:49;;;;;;;15.80;6.80;;;;;;;11.40;43.46;102572.06;5057290;28;20101;-74
2021/04/14 11:42:17;;;;;;;14.18;7.90;;;;;;;11.06;51.10;102576.00;5078253;28;20084;-75